Latest Coastal Weather Observations for Croker Island Airport

IDD60701

Issued at 2:51 pm CST Sunday 26 February 2017 (issued every 10 minutes, with the page automatically refreshed every 10 minutes)

About coastal observations | Map of coastal stations | Coastal observations for NT | Marine services | Other Formats
Station Details ID: 014308 Name: CROKER ISLAND AIRPORT Lat: -11.16 Lon: 132.48 Height: 9.2 m
Data from the previous 72 hours. | See also: Recent months at Croker Island Airport
Date/Time
CST
Temp
°C
Wind Pressure Rain since
9am
mm
Weather Cloud Vis
km
Sea
Height
m
Swell
Dir  Spd
kts
Gust
kts
hPa Trend Height
m
Period
s
Dir
26/02:30pm 33.8 SSW 4 6 1005.7 - 0.0 - - - - - - -
26/02:00pm 33.7 SW 4 5 1006.1 - 0.0 - - - - - - -
26/01:30pm 33.7 WSW 4 6 1006.3 - 0.0 - - - - - - -
26/01:00pm 32.7 WSW 5 6 1006.6 - 0.0 - - - - - - -
26/12:30pm 32.9 SW 5 7 1007.0 - 0.0 - - - - - - -
26/12:00pm 32.9 SW 6 8 1007.3 - 0.0 - - - - - - -
26/11:30am 32.1 SSW 6 8 1007.7 - 0.0 - - - - - - -
26/11:00am 31.9 SW 7 11 1008.0 - 0.0 - - - - - - -
26/10:30am 31.2 SSW 8 10 1008.2 - 0.0 - - - - - - -
26/10:00am 30.8 SW 5 8 1008.5 - 0.0 - - - - - - -
26/09:30am 30.4 SSW 5 8 1008.5 - 0.0 - - - - - - -
26/09:00am 29.7 SSW 4 5 1008.7 - 0.8 - - - - - - -
26/08:30am 29.1 SSW 4 5 1008.5 - 0.8 - - - - - - -
26/08:00am 28.1 SSW 3 6 1008.6 - 0.8 - - - - - - -
26/07:30am 27.1 SSW 4 5 1008.4 - 0.8 - - - - - - -
26/07:00am 26.4 S 5 7 1008.0 - 0.8 - - - - - - -
26/06:30am 26.3 S 5 7 1007.9 - 0.8 - - - - - - -
26/06:00am 26.4 SSW 8 11 1007.6 - 0.8 - - - - - - -
26/05:30am 26.6 SSW 6 9 1007.6 - 0.8 - - - - - - -
26/05:00am 27.2 SSW 8 12 1007.6 - 0.8 - - - - - - -
26/04:30am 27.4 SSW 6 9 1007.7 - 0.8 - - - - - - -
26/04:00am 27.5 S 5 7 1007.7 - 0.8 - - - - - - -
26/03:30am 27.4 SSW 6 8 1007.9 - 0.8 - - - - - - -
26/03:00am 27.8 SSW 6 9 1008.1 - 0.8 - - - - - - -
26/02:30am 27.9 SW 5 7 1008.3 - 0.8 - - - - - - -
26/02:00am 27.9 SSW 6 8 1008.4 - 0.8 - - - - - - -
26/01:30am 27.6 SSW 5 7 1008.7 - 0.8 - - - - - - -
26/01:00am 28.1 SW 4 6 1009.0 - 0.8 - - - - - - -
26/12:30am 28.2 SW 5 7 1009.3 - 0.8 - - - - - - -
26/12:00am 28.3 WSW 4 6 1009.6 - 0.8 - - - - - - -
 
Date/Time
CST
Temp
°C
Wind Pressure Rain since
9am
mm
Weather Cloud Vis
km
Sea
Height
m
Swell
Dir  Spd
kts
Gust
kts
hPa Trend Height
m
Period
s
Dir
25/11:30pm 28.3 W 4 6 1009.6 - 0.8 - - - - - - -
25/11:00pm 28.3 SW 5 7 1009.7 - 0.8 - - - - - - -
25/10:30pm 28.6 WSW 6 8 1009.5 - 0.8 - - - - - - -
25/10:00pm 28.6 W 5 8 1009.0 - 0.8 - - - - - - -
25/09:30pm 28.4 WNW 6 9 1008.6 - 0.8 - - - - - - -
25/09:00pm 28.4 WNW 6 11 1008.2 - 0.8 - - - - - - -
25/08:30pm 28.0 NW 3 5 1008.4 - 0.8 - - - - - - -
25/08:00pm 28.1 NW 3 5 1008.7 - 0.8 - - - - - - -
25/07:30pm 28.3 NW 3 5 1008.8 - 0.8 - - - - - - -
25/07:00pm 28.9 NW 4 6 1008.5 - 0.8 - - - - - - -
25/06:30pm 29.3 WNW 4 6 1008.0 - 0.8 - - - - - - -
25/06:00pm 29.8 NW 5 8 1007.5 - 0.8 - - - - - - -
25/05:30pm 30.6 NW 6 9 1007.3 - 0.8 - - - - - - -
25/05:00pm 31.3 WNW 5 8 1007.3 - 0.8 - - - - - - -
25/04:30pm 30.4 WNW 6 9 1007.8 - 0.8 - - - - - - -
25/04:00pm 31.4 WNW 5 9 1008.0 - 0.8 - - - - - - -
25/03:30pm 30.9 NW 6 9 1007.9 - 0.8 - - - - - - -
25/03:00pm 29.2 W 2 6 1008.3 - 0.8 Recent precip. - - - - - -
25/02:30pm 30.6 NW 5 7 1008.6 - 0.0 - - - - - - -
25/02:00pm 31.2 W 4 6 1008.9 - 0.0 - - - - - - -
25/01:30pm 32.5 SW 4 7 1009.0 - 0.0 - - - - - - -
25/01:00pm 32.9 SSW 3 5 1009.5 - 0.0 - - - - - - -
25/12:30pm 31.6 SSW 3 5 1009.9 - 0.0 - - - - - - -
25/12:00pm 31.6 WSW 3 4 1010.6 - 0.0 - - - - - - -
25/11:30am 31.2 WSW 2 3 1011.0 - 0.0 - - - - - - -
25/11:00am 30.8 SW 3 4 1011.2 - 0.0 - - - - - - -
25/10:30am 30.6 SW 2 3 1011.6 - 0.0 - - - - - - -
25/10:00am 30.2 SW 2 4 1011.7 - 0.0 - - - - - - -
25/09:30am 29.9 SW 3 4 1011.8 - 0.0 - - - - - - -
25/09:00am 29.6 SSW 3 4 1011.6 - 0.0 - - - - - - -
25/08:30am 28.9 SSW 2 3 1011.4 - 0.0 - - - - - - -
25/08:00am 28.0 SSW 2 3 1011.0 - 0.0 - - - - - - -
25/07:30am 26.8 S 2 3 1010.6 - 0.0 - - - - - - -
25/07:00am 26.1 S 3 4 1010.4 - 0.0 - - - - - - -
25/06:30am 26.1 ESE 3 3 1010.2 - 0.0 - - - - - - -
25/06:00am 26.1 ESE 3 3 1010.0 - 0.0 - - - - - - -
25/05:30am 26.0 ESE 3 3 1009.6 - 0.0 - - - - - - -
25/05:00am 26.0 ESE 3 4 1009.2 - 0.0 - - - - - - -
25/04:30am 26.1 E 3 3 1009.2 - 0.0 - - - - - - -
25/04:00am 26.4 E 3 4 1009.3 - 0.0 - - - - - - -
25/03:30am 26.5 ESE 3 4 1009.2 - 0.0 - - - - - - -
25/03:00am 26.4 ESE 2 3 1009.3 - 0.0 - - - - - - -
25/02:30am 26.6 ESE 2 3 1009.8 - 0.0 - - - - - - -
25/02:00am 27.0 E 2 2 1010.2 - 0.0 - - - - - - -
25/01:30am 27.2 ESE 3 4 1010.4 - 0.0 - - - - - - -
25/01:00am 27.3 ESE 2 3 1010.6 - 0.0 - - - - - - -
25/12:30am 26.9 ENE 1 1 1010.5 - 0.0 - - - - - - -
25/12:00am 27.4 E 2 2 1010.8 - 0.0 - - - - - - -
 
Date/Time
CST
Temp
°C
Wind Pressure Rain since
9am
mm
Weather Cloud Vis
km
Sea
Height
m
Swell
Dir  Spd
kts
Gust
kts
hPa Trend Height
m
Period
s
Dir
24/11:30pm 27.6 E 1 2 1010.8 - 0.0 - - - - - - -
24/11:00pm 27.5 N 2 3 1010.6 - 0.0 - - - - - - -
24/10:30pm 27.2 N 2 3 1010.3 - 0.0 - - - - - - -
24/10:00pm 27.4 NNW 2 3 1010.3 - 0.0 - - - - - - -
24/09:30pm 27.6 NNW 2 3 1010.3 - 0.0 - - - - - - -
24/09:00pm 27.7 N 2 3 1010.1 - 0.0 - - - - - - -
24/08:30pm 28.0 N 2 2 1009.6 - 0.0 - - - - - - -
24/08:00pm 28.1 NNW 2 3 1009.6 - 0.0 - - - - - - -
24/07:30pm 28.7 N 2 3 1009.6 - 0.0 - - - - - - -
24/07:00pm 29.3 N 4 6 1009.2 - 0.0 - - - - - - -
24/06:30pm 30.2 NNW 4 6 1009.0 - 0.0 - - - - - - -
24/06:00pm 30.7 NNW 5 8 1008.8 - 0.0 - - - - - - -
24/05:30pm 31.5 NW 4 6 1009.0 - 0.0 - - - - - - -
24/05:00pm 31.8 NNW 5 8 1008.7 - 0.0 - - - - - - -
24/04:30pm 32.3 NW 5 7 1008.7 - 0.0 - - - - - - -
24/04:00pm 32.4 NW 5 8 1008.8 - 0.0 - - - - - - -
24/03:30pm 32.1 NW 6 9 1008.6 - 0.0 - - - - - - -
24/03:00pm 31.7 NW 7 9 1009.1 - 0.0 - - - - - - -
24/02:30pm 32.0 NW 6 10 1009.4 - 0.0 - - - - - - -
24/02:00pm 32.4 NW 6 9 1009.7 - 0.0 - - - - - - -
24/01:30pm 31.7 NW 6 8 1010.2 - 0.0 - - - - - - -
24/01:00pm 32.5 NNW 6 9 1010.3 - 0.0 - - - - - - -
24/12:30pm 31.8 NW 5 8 1010.9 - 0.0 - - - - - - -
24/12:00pm 31.8 NW 5 8 1011.2 - 0.0 - - - - - - -
24/11:30am 32.0 NW 4 8 1011.3 - 0.0 - - - - - - -
24/11:00am 31.1 W 4 6 1011.5 - 0.0 - - - - - - -
24/10:30am 30.3 W 3 4 1011.7 - 0.0 - - - - - - -
24/10:00am 29.7 W 2 3 1011.9 - 0.0 - - - - - - -
24/09:30am 30.9 WSW 3 4 1011.9 - 0.0 - - - - - - -
24/09:00am 29.5 SW 4 5 1012.0 - 0.0 - - - - - - -
24/08:30am 29.7 W 4 5 1011.9 - 0.0 - - - - - - -
24/08:00am 29.4 WNW 5 7 1011.6 - 0.0 - - - - - - -
24/07:30am 28.8 WNW 5 7 1011.2 - 0.0 - - - - - - -
24/07:00am 28.4 WNW 6 8 1011.0 - 0.0 - - - - - - -
24/06:30am 28.0 WNW 6 8 1010.8 - 0.0 - - - - - - -
24/06:00am 28.0 WNW 6 8 1010.1 - 0.0 - - - - - - -
24/05:30am 28.1 NW 6 9 1009.8 - 0.0 - - - - - - -
24/05:00am 28.2 WNW 6 9 1009.9 - 0.0 - - - - - - -
24/04:30am 28.1 NW 6 10 1009.2 - 0.0 - - - - - - -
24/04:00am 28.1 NW 5 9 1009.3 - 0.0 - - - - - - -
24/03:30am 28.2 NNW 7 11 1009.2 - 0.0 - - - - - - -
24/03:00am 28.2 NNW 7 11 1009.2 - 0.0 - - - - - - -
24/02:30am 28.4 NW 6 10 1009.5 - 0.0 - - - - - - -
24/02:00am 28.5 NW 5 9 1009.8 - 0.0 - - - - - - -
24/01:30am 28.6 NW 6 9 1009.9 - 0.0 - - - - - - -
24/01:00am 28.6 NW 7 11 1010.0 - 0.0 - - - - - - -
24/12:30am 28.6 NW 8 11 1010.2 - 0.0 - - - - - - -
24/12:00am 28.6 NW 7 10 1010.4 - 0.0 - - - - - - -
 
Date/Time
CST
Temp
°C
Wind Pressure Rain since
9am
mm
Weather Cloud Vis
km
Sea
Height
m
Swell
Dir  Spd
kts
Gust
kts
hPa Trend Height
m
Period
s
Dir
23/11:30pm 28.8 NNW 7 10 1010.6 - 0.0 - - - - - - -
23/11:00pm 28.8 NNW 6 9 1010.7 - 0.0 - - - - - - -
23/10:30pm 28.8 NNW 6 9 1010.3 - 0.0 - - - - - - -
23/10:00pm 28.6 NNW 5 8 1009.8 - 0.0 - - - - - - -
23/09:30pm 28.4 NNW 5 7 1009.5 - 0.0 - - - - - - -
23/09:00pm 28.4 NW 5 7 1009.0 - 0.0 - - - - - - -
23/08:30pm 28.5 NW 4 7 1008.7 - 0.0 - - - - - - -
23/08:00pm 28.5 NW 4 7 1008.3 - 0.0 - - - - - - -
23/07:30pm 28.7 NW 6 8 1008.1 - 0.0 - - - - - - -
23/07:00pm 28.9 NNW 6 9 1007.7 - 0.0 - - - - - - -
23/06:30pm 29.9 NW 6 9 1007.4 - 0.0 - - - - - - -
23/06:00pm 30.4 NW 6 9 1007.2 - 0.0 - - - - - - -
23/05:30pm 30.8 NW 7 10 1007.2 - 0.0 - - - - - - -
23/05:00pm 31.4 NW 7 11 1007.0 - 0.0 - - - - - - -
23/04:30pm 31.2 NNW 8 11 1006.8 - 0.0 - - - - - - -
23/04:00pm 31.4 NNW 8 12 1007.0 - 0.0 - - - - - - -
23/03:30pm 31.4 NNW 8 12 1007.2 - 0.0 - - - - - - -
23/03:00pm 31.5 NNW 8 11 1007.2 - 0.0 - - - - - - -

Other Formats:

Comma delimited format used in spreadsheet applications
http://www.bom.gov.au/fwo/IDD60701/IDD60701.94108.axf

JavaScript Object Notation format (JSON) in row-major order
http://www.bom.gov.au/fwo/IDD60701/IDD60701.94108.json